createdAt,value
2018-02-16T00:01:14.234Z,66.45
2018-02-16T00:03:42.589Z,66.54
2018-02-16T00:06:10.969Z,66.77
2018-02-16T00:08:39.292Z,66.76
2018-02-16T00:11:07.664Z,66.92
2018-02-16T00:13:36.052Z,67.16
2018-02-16T00:16:04.388Z,67.20
2018-02-16T00:18:32.732Z,67.29
2018-02-16T00:21:01.200Z,67.27
2018-02-16T00:23:29.526Z,67.19
2018-02-16T00:25:57.854Z,67.61
2018-02-16T00:28:26.213Z,68.12
2018-02-16T00:30:54.564Z,68.71
2018-02-16T00:33:22.938Z,69.15
2018-02-16T00:35:51.284Z,69.47
2018-02-16T00:38:20.436Z,69.80
2018-02-16T00:40:48.771Z,70.09
2018-02-16T00:43:17.134Z,70.39
2018-02-16T00:45:45.480Z,71.08
2018-02-16T00:48:13.859Z,71.50
2018-02-16T00:50:42.219Z,71.90
2018-02-16T00:53:10.636Z,72.03
2018-02-16T00:55:38.981Z,72.05
2018-02-16T00:58:07.359Z,73.04
2018-02-16T01:00:35.692Z,73.90
2018-02-16T01:03:04.834Z,74.83
2018-02-16T01:05:33.192Z,75.07
2018-02-16T01:08:01.530Z,75.47
2018-02-16T01:10:29.888Z,76.01
2018-02-16T01:12:58.191Z,76.34
2018-02-16T01:15:27.281Z,76.54
2018-02-16T01:17:56.392Z,76.66
2018-02-16T01:20:25.468Z,76.98
2018-02-16T01:22:54.585Z,77.26
2018-02-16T01:25:23.655Z,77.08
2018-02-16T01:27:51.999Z,77.40
2018-02-16T01:30:20.537Z,77.50
2018-02-16T01:32:49.620Z,77.64
2018-02-16T01:35:18.719Z,77.55
2018-02-16T01:37:47.803Z,77.80
2018-02-16T01:40:16.895Z,77.54
2018-02-16T01:42:45.219Z,77.79
2018-02-16T01:45:13.563Z,77.88
2018-02-16T01:47:42.633Z,78.03
2018-02-16T01:50:10.947Z,77.88
2018-02-16T01:52:39.276Z,77.85
2018-02-16T01:55:07.586Z,77.81
2018-02-16T01:57:37.066Z,77.83
2018-02-16T02:00:05.377Z,77.90
2018-02-16T02:02:34.498Z,77.74
2018-02-16T02:05:02.874Z,77.72
2018-02-16T02:07:31.941Z,77.48
2018-02-16T02:10:01.052Z,77.25
2018-02-16T02:12:29.401Z,77.39
2018-02-16T02:14:57.717Z,77.46
2018-02-16T02:17:26.039Z,77.41
2018-02-16T02:19:54.390Z,77.39
2018-02-16T02:22:22.717Z,77.48
2018-02-16T02:24:51.816Z,77.40
2018-02-16T02:27:20.896Z,77.23
2018-02-16T02:29:49.239Z,77.08
2018-02-16T02:32:17.579Z,77.07
2018-02-16T02:34:45.949Z,76.99
2018-02-16T02:37:15.077Z,76.90
2018-02-16T02:39:43.410Z,76.75
2018-02-16T02:42:12.523Z,76.52
2018-02-16T02:44:40.882Z,76.43
2018-02-16T02:47:09.993Z,76.17
2018-02-16T02:49:38.321Z,76.01
2018-02-16T02:52:06.690Z,75.72
2018-02-16T02:54:35.008Z,75.57
2018-02-16T02:57:04.708Z,75.44
2018-02-16T02:59:33.053Z,75.20
2018-02-16T03:02:01.397Z,75.11
2018-02-16T03:04:29.741Z,74.92
2018-02-16T03:06:58.137Z,74.76
2018-02-16T03:09:27.248Z,74.80
2018-02-16T03:11:55.554Z,74.86
2018-02-16T03:14:23.893Z,75.03
2018-02-16T03:16:52.217Z,75.27
2018-02-16T03:19:20.571Z,75.36
2018-02-16T03:21:48.901Z,75.40
2018-02-16T03:24:17.249Z,75.19
2018-02-16T03:26:45.568Z,75.01
2018-02-16T03:29:14.664Z,75.05
2018-02-16T03:31:43.785Z,75.00
2018-02-16T03:34:12.098Z,75.04
2018-02-16T03:36:40.546Z,74.87
2018-02-16T03:39:08.860Z,75.17
2018-02-16T03:41:37.177Z,75.39
2018-02-16T03:44:06.312Z,75.85
2018-02-16T03:46:34.618Z,76.37
2018-02-16T03:49:02.974Z,77.14
2018-02-16T03:51:31.292Z,77.64
2018-02-16T03:54:00.416Z,78.12
2018-02-16T03:56:28.742Z,78.54
2018-02-16T03:58:57.100Z,78.94
2018-02-16T04:01:25.464Z,79.48
2018-02-16T04:03:53.774Z,79.67
2018-02-16T04:06:22.156Z,80.32
2018-02-16T04:08:50.486Z,80.59
2018-02-16T04:11:18.868Z,80.81
2018-02-16T04:13:47.220Z,80.71
2018-02-16T04:16:16.704Z,80.43
2018-02-16T04:18:45.033Z,80.28
2018-02-16T04:21:13.356Z,80.04
2018-02-16T04:23:41.704Z,79.83
2018-02-16T04:26:10.040Z,79.57
2018-02-16T04:28:38.389Z,79.09
2018-02-16T04:31:06.746Z,78.89
2018-02-16T04:33:35.050Z,78.81
2018-02-16T04:36:04.172Z,78.61
2018-02-16T04:38:32.488Z,78.29
2018-02-16T04:41:00.839Z,78.15
2018-02-16T04:43:29.230Z,78.21
2018-02-16T04:45:57.538Z,77.98
2018-02-16T04:48:25.856Z,77.74
2018-02-16T04:50:54.207Z,77.88
2018-02-16T04:53:22.531Z,78.09
2018-02-16T04:55:50.875Z,78.23
2018-02-16T04:58:19.960Z,78.48
2018-02-16T05:00:48.324Z,78.78
2018-02-16T05:03:16.631Z,79.17
2018-02-16T05:05:45.012Z,79.47
2018-02-16T05:08:13.359Z,79.61
2018-02-16T05:10:41.680Z,79.92
2018-02-16T05:13:10.017Z,80.24
2018-02-16T05:15:38.365Z,80.49
2018-02-16T05:18:06.712Z,80.98
2018-02-16T05:20:35.022Z,81.47
2018-02-16T05:23:03.314Z,81.92
2018-02-16T05:25:31.665Z,82.40
2018-02-16T05:27:59.984Z,82.67
2018-02-16T05:30:28.341Z,82.97
2018-02-16T05:32:56.667Z,83.35
2018-02-16T05:35:25.002Z,83.70
2018-02-16T05:37:54.280Z,83.98
2018-02-16T05:40:23.560Z,84.15
2018-02-16T05:42:51.920Z,84.20
2018-02-16T05:45:20.234Z,84.14
2018-02-16T05:47:48.601Z,83.95
2018-02-16T05:50:16.935Z,83.81
2018-02-16T05:52:46.050Z,83.63
2018-02-16T05:55:14.419Z,83.71
2018-02-16T05:57:42.745Z,83.98
2018-02-16T06:00:12.489Z,84.50
2018-02-16T06:02:40.907Z,85.10
2018-02-16T06:05:09.241Z,85.71
2018-02-16T06:07:38.370Z,85.83
2018-02-16T06:10:06.713Z,86.01
2018-02-16T06:12:35.850Z,86.55
2018-02-16T06:15:04.187Z,86.85
2018-02-16T06:17:33.335Z,87.15
2018-02-16T06:20:01.660Z,87.48
2018-02-16T06:22:30.750Z,87.66
2018-02-16T06:24:59.099Z,87.80
2018-02-16T06:27:27.413Z,88.09
2018-02-16T06:29:55.782Z,88.13
2018-02-16T06:32:24.180Z,88.29
2018-02-16T06:34:53.291Z,88.36
2018-02-16T06:37:21.647Z,88.44
2018-02-16T06:39:50.775Z,88.53
2018-02-16T06:42:19.150Z,88.65
2018-02-16T06:44:47.479Z,88.84
2018-02-16T06:47:15.868Z,88.96
2018-02-16T06:49:44.963Z,89.07
2018-02-16T06:52:14.671Z,89.09
2018-02-16T06:54:43.753Z,89.07
2018-02-16T06:57:12.112Z,89.12
2018-02-16T06:59:40.462Z,89.14
2018-02-16T07:02:08.824Z,89.17
2018-02-16T07:04:37.263Z,89.16
2018-02-16T07:07:05.589Z,89.17
2018-02-16T07:09:33.953Z,89.21
2018-02-16T07:12:03.124Z,89.24
2018-02-16T07:14:31.430Z,89.19
2018-02-16T07:16:59.733Z,89.10
2018-02-16T07:19:28.065Z,89.05
2018-02-16T07:21:57.154Z,89.00
2018-02-16T07:24:25.503Z,88.99
2018-02-16T07:26:53.850Z,88.84
2018-02-16T07:29:22.149Z,88.71
2018-02-16T07:31:50.509Z,88.59
2018-02-16T07:34:18.823Z,88.34
2018-02-16T07:36:47.191Z,88.26
2018-02-16T07:39:15.506Z,88.10
2018-02-16T07:41:44.629Z,87.94
2018-02-16T07:44:12.985Z,87.64
2018-02-16T07:46:42.066Z,87.57
2018-02-16T07:49:11.270Z,87.31
2018-02-16T07:51:40.506Z,87.15
2018-02-16T07:54:08.870Z,87.03
2018-02-16T07:56:37.180Z,86.78
2018-02-16T07:59:05.526Z,86.55
2018-02-16T08:01:33.866Z,86.10
2018-02-16T08:04:02.197Z,85.75
2018-02-16T08:06:30.529Z,85.38
2018-02-16T08:08:59.656Z,85.14
2018-02-16T08:11:27.993Z,84.73
2018-02-16T08:13:57.110Z,84.53
2018-02-16T08:16:25.442Z,84.09
2018-02-16T08:18:53.786Z,83.63
2018-02-16T08:21:22.106Z,83.23
2018-02-16T08:23:50.420Z,83.04
2018-02-16T08:26:18.771Z,82.44
2018-02-16T08:28:47.100Z,81.93
2018-02-16T08:31:15.434Z,81.28
2018-02-16T08:33:44.520Z,80.63
2018-02-16T08:36:12.882Z,80.04
2018-02-16T08:38:41.222Z,79.29
2018-02-16T08:41:09.591Z,78.74
2018-02-16T08:43:37.970Z,78.22
2018-02-16T08:46:06.289Z,77.80
2018-02-16T08:48:34.632Z,77.34
2018-02-16T08:51:02.945Z,77.21
2018-02-16T08:53:31.302Z,76.97
2018-02-16T08:55:59.622Z,76.82
2018-02-16T08:58:28.759Z,76.54
2018-02-16T09:00:57.060Z,75.69
2018-02-16T09:03:25.494Z,75.15
2018-02-16T09:05:53.848Z,74.10
2018-02-16T09:08:22.198Z,73.29
2018-02-16T09:10:50.519Z,72.80
2018-02-16T09:13:18.882Z,72.67
2018-02-16T09:15:47.255Z,72.81
2018-02-16T09:18:15.966Z,72.06
2018-02-16T09:20:44.277Z,71.17
2018-02-16T09:23:12.646Z,70.44
2018-02-16T09:25:40.957Z,70.32
2018-02-16T09:28:09.343Z,70.05
2018-02-16T09:30:37.667Z,69.69
2018-02-16T09:33:06.020Z,69.11
2018-02-16T09:35:36.749Z,67.77
2018-02-16T09:38:05.136Z,67.54
2018-02-16T09:40:34.222Z,66.64
2018-02-16T09:43:03.321Z,65.86
2018-02-16T09:45:32.395Z,65.26
2018-02-16T09:48:00.796Z,64.93
2018-02-16T09:50:29.926Z,64.84
2018-02-16T09:52:58.250Z,64.04
2018-02-16T09:55:26.617Z,63.73
2018-02-16T09:57:54.925Z,62.82
2018-02-16T10:00:24.018Z,62.78
2018-02-16T10:02:53.117Z,62.17
2018-02-16T10:05:22.236Z,61.83
2018-02-16T10:07:54.796Z,60.98
2018-02-16T10:10:23.184Z,61.50
2018-02-16T10:12:51.535Z,61.14
2018-02-16T10:15:19.886Z,60.74
2018-02-16T10:17:48.394Z,60.39
2018-02-16T10:20:17.534Z,60.03
2018-02-16T10:22:45.866Z,59.20
2018-02-16T10:25:14.214Z,59.65
2018-02-16T10:27:42.521Z,59.36
2018-02-16T10:30:11.648Z,58.50
2018-02-16T10:32:39.959Z,58.36
2018-02-16T10:35:08.311Z,58.50
2018-02-16T10:37:37.410Z,57.72
2018-02-16T10:40:05.731Z,57.66
2018-02-16T10:42:34.111Z,57.44
2018-02-16T10:45:02.421Z,57.01
2018-02-16T10:47:31.134Z,56.60
2018-02-16T10:49:59.501Z,56.09
2018-02-16T10:52:27.816Z,55.84
2018-02-16T10:54:56.137Z,55.71
2018-02-16T10:57:24.493Z,55.64
2018-02-16T10:59:53.576Z,55.55
2018-02-16T11:02:27.365Z,55.54
2018-02-16T11:05:01.174Z,55.61
2018-02-16T11:07:35.125Z,55.68
2018-02-16T11:10:03.467Z,55.08
2018-02-16T11:12:31.774Z,55.09
2018-02-16T11:15:00.933Z,55.10
2018-02-16T11:17:29.287Z,55.46
2018-02-16T11:19:57.611Z,54.90
2018-02-16T11:22:26.738Z,52.20
2018-02-16T11:24:55.133Z,52.03
2018-02-16T11:27:23.467Z,52.52
2018-02-16T11:29:52.643Z,51.70
2018-02-16T11:32:20.951Z,51.44
2018-02-16T11:34:51.015Z,51.74
2018-02-16T11:37:19.332Z,51.25
2018-02-16T11:39:48.446Z,51.87
2018-02-16T11:42:16.803Z,52.07
2018-02-16T11:44:45.188Z,51.70
2018-02-16T11:47:14.308Z,50.96
2018-02-16T11:49:42.676Z,51.18
2018-02-16T11:52:10.983Z,49.84
2018-02-16T11:54:39.284Z,46.48
2018-02-16T11:57:07.614Z,46.78
2018-02-16T11:59:35.918Z,46.44
2018-02-16T12:02:04.243Z,46.44
2018-02-16T12:04:33.325Z,46.37
2018-02-16T12:07:01.679Z,46.69
2018-02-16T12:09:30.029Z,46.82
2018-02-16T12:11:58.350Z,46.29
2018-02-16T12:14:26.687Z,46.27
2018-02-16T12:16:55.004Z,46.11
2018-02-16T12:19:23.347Z,47.01
2018-02-16T12:21:51.700Z,46.90
2018-02-16T12:24:20.050Z,45.66
2018-02-16T12:26:48.404Z,43.97
2018-02-16T12:29:16.794Z,42.98
2018-02-16T12:31:45.111Z,43.01
2018-02-16T12:34:13.403Z,43.90
2018-02-16T12:36:41.756Z,44.94
2018-02-16T12:39:10.073Z,45.15
2018-02-16T12:41:38.382Z,44.47
2018-02-16T12:44:06.738Z,43.58
2018-02-16T12:46:35.090Z,42.43
2018-02-16T12:49:03.403Z,42.93
2018-02-16T12:51:31.728Z,43.75
2018-02-16T12:54:00.131Z,43.84
2018-02-16T12:56:28.876Z,43.58
2018-02-16T12:58:57.942Z,43.58
2018-02-16T13:01:26.293Z,43.55
2018-02-16T13:03:54.613Z,43.78
2018-02-16T13:06:23.753Z,43.79
2018-02-16T13:08:52.073Z,43.34
2018-02-16T13:11:20.402Z,43.18
2018-02-16T13:13:48.743Z,42.04
2018-02-16T13:16:17.821Z,42.55
2018-02-16T13:18:46.171Z,42.80
2018-02-16T13:21:14.545Z,43.04
2018-02-16T13:23:42.911Z,43.43
2018-02-16T13:26:12.104Z,43.71
2018-02-16T13:28:40.446Z,43.00
2018-02-16T13:31:09.575Z,42.19
2018-02-16T13:33:37.896Z,42.09
2018-02-16T13:36:06.312Z,41.67
2018-02-16T13:38:34.708Z,41.44
2018-02-16T13:41:03.068Z,41.72
2018-02-16T13:43:32.803Z,41.88
2018-02-16T13:46:02.029Z,41.86
2018-02-16T13:48:30.363Z,42.13
2018-02-16T13:50:59.130Z,42.84
2018-02-16T13:53:28.229Z,43.34
2018-02-16T13:55:57.365Z,44.09
2018-02-16T13:58:25.674Z,45.15
2018-02-16T14:00:54.048Z,46.99
2018-02-16T14:03:22.354Z,48.89
2018-02-16T14:05:51.506Z,50.42
2018-02-16T14:08:20.552Z,51.40
2018-02-16T14:10:49.235Z,52.19
2018-02-16T14:13:19.049Z,52.79
2018-02-16T14:15:48.232Z,53.39
2018-02-16T14:18:18.195Z,53.88
2018-02-16T14:20:47.399Z,54.32
2018-02-16T14:23:16.074Z,54.90
2018-02-16T14:25:44.449Z,55.20
2018-02-16T14:28:13.018Z,55.10
2018-02-16T14:30:41.537Z,55.33
2018-02-16T14:33:09.915Z,55.49
2018-02-16T14:35:38.244Z,55.73
2018-02-16T14:38:07.480Z,55.80
2018-02-16T14:40:35.849Z,55.87
2018-02-16T14:43:04.230Z,55.70
2018-02-16T14:45:32.874Z,55.12
2018-02-16T14:48:01.286Z,54.69
2018-02-16T14:50:29.779Z,54.75
2018-02-16T14:53:02.504Z,54.80
2018-02-16T14:55:30.684Z,54.99
2018-02-16T14:58:00.679Z,55.23
2018-02-16T15:00:29.133Z,55.61
2018-02-16T15:02:57.659Z,55.29
2018-02-16T15:05:26.087Z,55.77
2018-02-16T15:07:55.247Z,56.18
2018-02-16T15:10:23.611Z,55.70
2018-02-16T15:12:51.979Z,55.28
2018-02-16T15:15:21.972Z,54.96
2018-02-16T15:17:51.207Z,54.01
2018-02-16T15:20:20.311Z,53.12
2018-02-16T15:22:50.225Z,53.15
2018-02-16T15:25:19.531Z,53.91
2018-02-16T15:27:49.814Z,54.16
2018-02-16T15:30:18.172Z,54.36
2018-02-16T15:32:46.517Z,54.36
2018-02-16T15:35:15.213Z,55.01
2018-02-16T15:37:43.595Z,55.25
2018-02-16T15:40:12.919Z,55.67
2018-02-16T15:42:41.496Z,56.29
2018-02-16T15:45:10.246Z,56.74
2018-02-16T15:47:38.594Z,57.01
2018-02-16T15:50:07.068Z,57.57
2018-02-16T15:52:35.453Z,57.78
2018-02-16T15:55:03.775Z,57.74
2018-02-16T15:57:33.008Z,57.37
2018-02-16T16:00:01.405Z,57.08
2018-02-16T16:02:30.850Z,56.87
2018-02-16T16:05:00.100Z,56.96
2018-02-16T16:07:28.481Z,56.84
2018-02-16T16:09:59.400Z,56.75
2018-02-16T16:12:28.134Z,56.90
2018-02-16T16:14:56.449Z,56.81
2018-02-16T16:17:25.622Z,56.53
2018-02-16T16:19:54.163Z,56.36
2018-02-16T16:22:22.747Z,56.44
2018-02-16T16:24:51.140Z,56.35
2018-02-16T16:27:20.332Z,56.67
2018-02-16T16:29:48.681Z,57.16
2018-02-16T16:32:19.039Z,56.89
2018-02-16T16:34:47.436Z,57.37
2018-02-16T16:37:15.850Z,57.53
2018-02-16T16:39:44.235Z,57.54
2018-02-16T16:42:12.600Z,58.10
2018-02-16T16:44:40.921Z,58.33
2018-02-16T16:47:09.268Z,58.69
2018-02-16T16:49:37.590Z,58.80
2018-02-16T16:52:06.707Z,59.50
2018-02-16T16:54:35.030Z,59.69
2018-02-16T16:57:03.361Z,60.39
2018-02-16T16:59:31.688Z,60.87
2018-02-16T17:02:00.053Z,61.22
2018-02-16T17:04:28.386Z,61.46
2018-02-16T17:06:56.694Z,61.85
2018-02-16T17:09:25.106Z,62.04
2018-02-16T17:11:54.590Z,62.41
2018-02-16T17:14:24.140Z,62.72
2018-02-16T17:16:53.887Z,62.76
2018-02-16T17:19:22.310Z,62.80
2018-02-16T17:21:50.692Z,62.94
2018-02-16T17:24:19.024Z,63.32
2018-02-16T17:26:48.191Z,63.65
2018-02-16T17:29:16.542Z,63.98
2018-02-16T17:31:45.648Z,64.32
2018-02-16T17:34:15.098Z,64.62
2018-02-16T17:36:43.426Z,64.93
2018-02-16T17:39:12.518Z,65.36
2018-02-16T17:41:41.644Z,65.74
2018-02-16T17:44:09.946Z,66.22
2018-02-16T17:46:38.291Z,66.45
2018-02-16T17:49:06.652Z,66.70
2018-02-16T17:51:35.837Z,67.61
2018-02-16T17:54:04.206Z,67.83
2018-02-16T17:56:32.533Z,67.81
2018-02-16T17:59:01.538Z,67.77
2018-02-16T18:01:29.878Z,67.90
2018-02-16T18:03:58.966Z,67.93
2018-02-16T18:06:28.093Z,67.96
2018-02-16T18:08:56.813Z,68.81
2018-02-16T18:11:25.161Z,69.14
2018-02-16T18:13:54.270Z,69.67
2018-02-16T18:16:22.646Z,70.19
2018-02-16T18:18:51.760Z,70.45
2018-02-16T18:21:20.092Z,70.28
2018-02-16T18:23:48.443Z,70.26
2018-02-16T18:26:16.831Z,70.30
2018-02-16T18:28:45.913Z,71.04
2018-02-16T18:31:14.241Z,70.99
2018-02-16T18:33:42.702Z,71.46
2018-02-16T18:36:11.053Z,71.51
2018-02-16T18:38:40.194Z,71.31
2018-02-16T18:41:08.538Z,71.62
2018-02-16T18:43:37.641Z,72.45
2018-02-16T18:46:06.790Z,72.74
2018-02-16T18:48:35.112Z,72.92
2018-02-16T18:51:03.582Z,73.07
2018-02-16T18:53:32.310Z,73.02
2018-02-16T18:56:00.657Z,73.08
2018-02-16T18:58:29.790Z,73.24
2018-02-16T19:00:58.155Z,73.37
2018-02-16T19:03:27.315Z,73.64
2018-02-16T19:05:56.437Z,73.74
2018-02-16T19:08:25.570Z,73.75
2018-02-16T19:10:54.739Z,73.80
2018-02-16T19:13:23.055Z,73.98
2018-02-16T19:15:51.404Z,74.06
2018-02-16T19:18:19.726Z,74.27
2018-02-16T19:20:48.101Z,74.42
2018-02-16T19:23:16.466Z,74.61
2018-02-16T19:25:44.805Z,74.54
2018-02-16T19:28:13.198Z,74.56
2018-02-16T19:30:41.525Z,75.05
2018-02-16T19:33:10.348Z,75.08
2018-02-16T19:35:39.329Z,75.24
2018-02-16T19:38:07.734Z,75.54
2018-02-16T19:40:36.051Z,75.69
2018-02-16T19:43:05.186Z,75.99
2018-02-16T19:45:34.128Z,76.09
2018-02-16T19:48:03.301Z,76.15
2018-02-16T19:50:31.641Z,76.41
2018-02-16T19:52:59.974Z,77.05
2018-02-16T19:55:28.727Z,77.33
2018-02-16T19:57:57.100Z,77.57
2018-02-16T20:00:25.436Z,77.81
2018-02-16T20:02:54.568Z,77.94
2018-02-16T20:05:23.507Z,77.92
2018-02-16T20:07:52.244Z,78.46
2018-02-16T20:10:20.620Z,78.49
2018-02-16T20:12:49.740Z,78.50
2018-02-16T20:15:18.129Z,78.94
2018-02-16T20:17:46.560Z,78.94
2018-02-16T20:20:16.152Z,78.53
2018-02-16T20:22:46.009Z,78.91
2018-02-16T20:25:14.359Z,78.98
2018-02-16T20:27:42.748Z,79.25
2018-02-16T20:30:12.116Z,79.21
2018-02-16T20:32:41.241Z,79.48
2018-02-16T20:35:10.257Z,79.67
2018-02-16T20:37:38.589Z,79.57
2018-02-16T20:40:06.999Z,79.46
2018-02-16T20:42:36.000Z,79.56
2018-02-16T20:45:06.433Z,79.70
2018-02-16T20:47:35.662Z,79.84
2018-02-16T20:50:04.039Z,79.87
2018-02-16T20:52:32.382Z,79.94
2018-02-16T20:55:00.758Z,80.24
2018-02-16T20:57:29.748Z,80.36
2018-02-16T20:59:58.532Z,80.51
2018-02-16T21:02:26.846Z,80.56
2018-02-16T21:04:56.010Z,80.65
2018-02-16T21:07:24.798Z,80.78
2018-02-16T21:09:54.096Z,80.84
2018-02-16T21:12:23.362Z,81.43
2018-02-16T21:14:52.480Z,81.15
2018-02-16T21:17:20.788Z,81.10
2018-02-16T21:19:49.128Z,81.06
2018-02-16T21:22:17.482Z,81.08
2018-02-16T21:24:46.580Z,81.50
2018-02-16T21:27:15.720Z,81.51
2018-02-16T21:29:44.094Z,81.40
2018-02-16T21:32:12.873Z,81.35
2018-02-16T21:34:41.241Z,81.17
2018-02-16T21:37:09.567Z,81.24
2018-02-16T21:39:37.892Z,81.36
2018-02-16T21:42:07.188Z,81.40
2018-02-16T21:44:35.517Z,81.50
2018-02-16T21:47:03.866Z,81.74
2018-02-16T21:49:32.244Z,81.89
2018-02-16T21:52:00.596Z,82.11
2018-02-16T21:54:31.518Z,82.14
2018-02-16T21:57:00.632Z,82.23
2018-02-16T21:59:29.336Z,82.20
2018-02-16T22:01:58.593Z,82.27
2018-02-16T22:04:27.038Z,82.49
2018-02-16T22:06:55.370Z,82.51
2018-02-16T22:09:25.241Z,82.65
2018-02-16T22:11:56.644Z,82.85
2018-02-16T22:14:24.986Z,82.78
2018-02-16T22:16:54.096Z,82.74
2018-02-16T22:19:22.524Z,82.65
2018-02-16T22:21:51.615Z,82.60
2018-02-16T22:24:19.938Z,82.55
2018-02-16T22:26:49.373Z,82.60
2018-02-16T22:29:17.702Z,82.63
2018-02-16T22:31:46.092Z,82.67
2018-02-16T22:34:14.454Z,82.62
2018-02-16T22:36:43.120Z,82.67
2018-02-16T22:39:11.453Z,82.57
2018-02-16T22:41:44.041Z,82.60
2018-02-16T22:44:12.416Z,82.78
2018-02-16T22:46:40.767Z,82.79
2018-02-16T22:49:09.134Z,82.97
2018-02-16T22:51:39.293Z,83.19
2018-02-16T22:54:07.697Z,83.19
2018-02-16T22:56:36.094Z,83.33
2018-02-16T22:59:06.867Z,83.44
2018-02-16T23:01:37.588Z,83.57
2018-02-16T23:04:06.134Z,83.44
2018-02-16T23:06:34.972Z,83.25
2018-02-16T23:09:03.503Z,83.41
2018-02-16T23:11:33.526Z,83.51
2018-02-16T23:14:22.723Z,83.76
2018-02-16T23:16:51.113Z,83.96
2018-02-16T23:19:20.224Z,84.04
2018-02-16T23:21:48.887Z,84.08
2018-02-16T23:24:18.042Z,84.22
2018-02-16T23:26:46.377Z,84.06
2018-02-16T23:29:15.497Z,84.12
2018-02-16T23:31:44.806Z,84.14
2018-02-16T23:34:13.144Z,84.24
2018-02-16T23:36:42.251Z,84.28
2018-02-16T23:39:10.631Z,84.28
2018-02-16T23:41:38.994Z,84.31
2018-02-16T23:44:08.084Z,84.24
2018-02-16T23:46:36.398Z,84.40
2018-02-16T23:49:04.750Z,84.47
2018-02-16T23:51:33.115Z,84.66
2018-02-16T23:54:01.444Z,84.69
2018-02-16T23:56:30.589Z,84.78
2018-02-16T23:58:58.948Z,84.88
